Time;durP1;ratioP1;P1;durP2;ratioP2;P2;SDS_P1;SDS_P2;PMS_P1;PMS_P2;Temp;Humidity;BMP_temperature;BMP_pressure;BME280_temperature;BME280_humidity;BME280_pressure;Samples;Min_cycle;Max_cycle;Signal;HPM_P1;HPM_P2
2022/09/06 00:03:11;;;;;;;13.55;4.40;;;;;;;22.14;100.00;100820.00;5058129;28;20079;-86
2022/09/06 00:06:08;;;;;;;11.77;4.60;;;;;;;22.28;100.00;100816.06;5057795;28;20033;-85
2022/09/06 00:08:49;;;;;;;8.07;4.13;;;;;;;22.26;100.00;100809.25;5052677;28;20615;-88
2022/09/06 03:18:47;;;;;;;8.15;2.72;;;;;;;20.71;100.00;100808.00;5155928;22;20041;-88
2022/09/06 03:25:25;;;;;;;7.28;2.65;;;;;;;20.63;100.00;100806.41;5079683;28;20025;-87
2022/09/06 04:20:21;;;;;;;;;;;;;;;;;;;;;
2022/09/06 04:23:45;;;;;;;6.68;3.10;;;;;;;20.41;100.00;100823.19;5058049;28;20077;-86
2022/09/06 04:27:02;;;;;;;10.70;3.45;;;;;;;20.38;100.00;100820.94;5029330;28;20041;-86
2022/09/06 05:07:33;;;;;;;12.15;4.03;;;;;;;19.90;100.00;100837.53;4992675;28;20083;-83
2022/09/06 05:09:58;;;;;;;9.23;4.45;;;;;;;19.98;100.00;100840.00;4994430;28;20031;-82
2022/09/06 05:12:27;;;;;;;15.82;3.97;;;;;;;20.15;100.00;100836.78;4999332;28;20523;-87
2022/09/06 05:14:52;;;;;;;10.23;4.20;;;;;;;20.16;100.00;100827.66;5000484;28;20126;-85
2022/09/06 05:17:24;;;;;;;7.00;3.95;;;;;;;20.26;100.00;100833.38;5004738;28;20442;-90
2022/09/06 05:19:49;;;;;;;8.05;4.20;;;;;;;20.30;100.00;100835.47;5007467;28;20042;-90
2022/09/06 05:22:17;;;;;;;15.05;4.10;;;;;;;20.56;100.00;100834.44;4989122;28;20442;-87
2022/09/06 05:24:43;;;;;;;6.30;4.20;;;;;;;20.77;100.00;100836.75;5008456;28;20114;-86
2022/09/06 05:27:11;;;;;;;12.88;4.03;;;;;;;21.02;100.00;100837.53;4992258;28;20092;-84
2022/09/06 05:29:37;;;;;;;5.07;3.80;;;;;;;21.32;100.00;100844.94;4989924;28;20041;-88
2022/09/06 05:32:03;;;;;;;9.10;4.38;;;;;;;21.63;100.00;100853.69;4987488;28;20425;-87
2022/09/06 05:34:29;;;;;;;8.68;3.85;;;;;;;21.70;100.00;100848.22;4997677;28;20393;-86
2022/09/06 05:36:55;;;;;;;14.82;3.83;;;;;;;21.69;100.00;100851.97;4999574;28;20046;-88
2022/09/06 05:39:20;;;;;;;7.78;3.45;;;;;;;22.12;100.00;100852.66;4998946;28;20034;-85
2022/09/06 05:41:46;;;;;;;9.02;3.30;;;;;;;22.26;100.00;100853.28;4997426;28;20039;-87
2022/09/06 05:44:13;;;;;;;10.13;3.88;;;;;;;22.13;100.00;100858.88;4998184;28;20034;-85
2022/09/06 05:46:44;;;;;;;6.63;3.25;;;;;;;22.52;100.00;100863.69;4998384;28;20077;-86
2022/09/06 05:49:11;;;;;;;10.13;3.72;;;;;;;22.32;100.00;100857.75;4998928;28;20117;-86
2022/09/06 05:51:40;;;;;;;9.88;3.55;;;;;;;22.28;100.00;100853.03;4986860;28;20034;-87
2022/09/06 05:54:08;;;;;;;13.15;4.05;;;;;;;23.05;100.00;100863.66;5009038;28;20031;-87
2022/09/06 05:56:34;;;;;;;8.95;3.20;;;;;;;23.23;100.00;100875.41;4981702;28;20082;-88
2022/09/06 05:58:59;;;;;;;8.52;3.15;;;;;;;23.18;100.00;100874.22;4981456;28;20409;-86
2022/09/06 06:01:29;;;;;;;12.30;3.75;;;;;;;24.51;97.19;100875.84;4997507;28;20401;-87
2022/09/06 06:04:01;;;;;;;11.25;3.90;;;;;;;23.99;100.00;100884.09;4997920;28;20493;-86
2022/09/06 06:06:30;;;;;;;6.93;2.90;;;;;;;24.10;100.00;100883.19;4997699;28;20050;-87
2022/09/06 06:08:55;;;;;;;8.55;3.80;;;;;;;24.13;99.16;100885.47;4997628;28;20034;-89
2022/09/06 06:11:22;;;;;;;12.95;4.82;;;;;;;24.04;100.00;100877.94;4997399;28;20041;-87
2022/09/06 06:13:49;;;;;;;12.02;3.97;;;;;;;23.99;99.99;100886.81;4981895;28;20124;-89
2022/09/06 06:16:17;;;;;;;12.70;4.00;;;;;;;24.12;98.75;100885.72;4999387;28;20033;-87
2022/09/06 06:18:45;;;;;;;15.32;3.80;;;;;;;24.47;95.35;100889.06;4963424;28;20042;-89
2022/09/06 06:21:11;;;;;;;14.75;3.67;;;;;;;25.24;92.14;100883.81;4996730;28;20444;-88
2022/09/06 06:23:37;;;;;;;10.85;3.65;;;;;;;26.29;81.82;100888.13;4996045;28;20050;-87
2022/09/06 06:26:04;;;;;;;9.25;3.67;;;;;;;25.98;84.60;100889.69;4988284;28;20054;-89
2022/09/06 06:28:29;;;;;;;11.85;5.07;;;;;;;25.73;85.81;100887.50;5003904;28;20062;-88
2022/09/06 06:30:55;;;;;;;11.75;4.18;;;;;;;25.93;84.30;100886.91;4998393;28;20142;-89
2022/09/06 06:33:23;;;;;;;9.98;4.90;;;;;;;26.06;83.72;100892.78;5000958;28;20030;-84
2022/09/06 06:36:15;;;;;;;15.20;6.70;;;;;;;25.76;85.54;100883.44;5000657;28;20045;-87
2022/09/06 06:38:43;;;;;;;11.75;5.85;;;;;;;25.56;88.46;100878.56;4983233;28;20049;-85
2022/09/06 06:41:11;;;;;;;12.30;5.88;;;;;;;25.86;85.67;100881.66;5003577;28;20127;-85
2022/09/06 06:43:37;;;;;;;13.88;5.97;;;;;;;25.85;85.64;100873.78;5002275;28;20086;-87
2022/09/06 06:46:07;;;;;;;10.48;5.22;;;;;;;26.40;82.27;100882.56;4999924;28;20536;-85
2022/09/06 06:48:32;;;;;;;9.75;5.57;;;;;;;26.45;81.57;100879.88;4998979;28;20047;-88
2022/09/06 06:50:58;;;;;;;11.63;6.20;;;;;;;26.62;79.45;100871.59;4998000;28;20034;-89
2022/09/06 06:53:23;;;;;;;13.00;5.13;;;;;;;27.11;78.07;100872.28;4981094;28;20088;-90
2022/09/06 06:55:49;;;;;;;13.10;4.60;;;;;;;28.00;72.14;100877.63;4992946;28;20039;-91
2022/09/06 06:58:18;;;;;;;11.75;4.57;;;;;;;28.01;73.96;100876.50;4980951;28;20493;-89
2022/09/06 07:00:44;;;;;;;15.52;4.45;;;;;;;27.71;73.23;100880.78;4997394;28;20049;-88
2022/09/06 07:03:11;;;;;;;12.00;4.30;;;;;;;28.11;72.33;100877.38;4997573;28;20030;-87
2022/09/06 07:05:38;;;;;;;15.60;5.05;;;;;;;27.49;73.91;100879.31;4980556;28;20042;-90
2022/09/06 07:08:05;;;;;;;13.27;4.38;;;;;;;28.81;67.21;100889.47;4981741;28;20153;-90
2022/09/06 07:10:32;;;;;;;19.33;4.78;;;;;;;28.77;66.88;100893.06;5004385;28;20061;-88
2022/09/06 07:12:58;;;;;;;16.52;4.75;;;;;;;28.49;68.61;100880.72;4982229;28;20022;-90
2022/09/06 07:15:24;;;;;;;15.32;5.20;;;;;;;28.05;71.33;100888.50;5000248;28;20045;-90
2022/09/06 07:17:51;;;;;;;12.07;4.80;;;;;;;28.24;69.56;100885.03;4979400;28;20068;-90
2022/09/06 07:20:19;;;;;;;10.48;4.22;;;;;;;28.78;68.12;100884.56;5000915;28;20508;-93
2022/09/06 07:22:44;;;;;;;11.57;3.83;;;;;;;29.24;66.64;100886.16;5001833;28;20034;-90
2022/09/06 07:25:12;;;;;;;16.95;4.68;;;;;;;29.41;65.79;100885.03;5004069;28;20085;-91
2022/09/06 07:27:42;;;;;;;15.60;4.95;;;;;;;29.86;62.87;100890.38;5003587;28;20062;-91
2022/09/06 07:30:12;;;;;;;15.25;4.93;;;;;;;29.55;64.93;100886.09;5002368;28;20034;-91
2022/09/06 07:32:38;;;;;;;15.90;4.97;;;;;;;29.64;64.61;100889.88;5003174;28;20038;-92
2022/09/06 07:35:04;;;;;;;9.60;4.30;;;;;;;29.76;65.14;100887.66;5002151;28;20038;-87
2022/09/06 07:37:29;;;;;;;13.80;5.13;;;;;;;29.92;63.47;100889.25;5002463;28;20192;-88
2022/09/06 07:39:55;;;;;;;14.90;4.40;;;;;;;29.91;62.86;100890.34;4999868;28;20062;-89
2022/09/06 07:42:20;;;;;;;16.33;4.65;;;;;;;29.91;62.39;100887.59;5001110;28;20046;-91
2022/09/06 07:44:46;;;;;;;10.73;3.40;;;;;;;30.01;61.79;100889.47;4978473;28;20061;-91
2022/09/06 07:47:16;;;;;;;9.05;3.20;;;;;;;30.42;58.94;100895.53;4981363;28;20379;-89
2022/09/06 07:49:42;;;;;;;14.25;3.65;;;;;;;29.85;58.58;100886.00;4997738;28;20045;-91
2022/09/06 07:52:19;;;;;;;6.28;2.40;;;;;;;30.04;57.62;100883.44;4997856;28;20034;-89
2022/09/06 07:54:45;;;;;;;15.88;3.20;;;;;;;30.66;57.47;100901.91;4994842;28;20022;-90
2022/09/06 07:57:10;;;;;;;14.57;3.30;;;;;;;30.39;57.14;100896.06;4978995;28;20042;-90
2022/09/06 07:59:39;;;;;;;11.85;2.80;;;;;;;30.15;57.72;100909.63;5002049;28;20030;-90
2022/09/06 08:02:08;;;;;;;7.72;2.33;;;;;;;29.73;58.56;100888.22;4989990;28;20034;-89
2022/09/06 08:04:34;;;;;;;8.57;2.78;;;;;;;29.83;58.92;100896.38;4999821;28;20040;-89
2022/09/06 08:07:01;;;;;;;8.15;2.95;;;;;;;29.92;58.22;100891.97;4998875;28;20047;-89
2022/09/06 08:09:29;;;;;;;10.10;2.65;;;;;;;30.01;57.59;100890.28;4996292;28;20493;-88
2022/09/06 08:11:58;;;;;;;11.25;3.03;;;;;;;30.05;58.51;100902.28;4981950;28;20567;-86
2022/09/06 08:14:24;;;;;;;9.93;3.15;;;;;;;30.21;57.72;100895.63;5000197;28;20448;-89
2022/09/06 08:16:49;;;;;;;13.90;3.72;;;;;;;30.40;56.30;100903.16;4999923;28;20038;-90
2022/09/06 08:19:15;;;;;;;15.90;2.92;;;;;;;30.32;56.15;100896.38;4983100;28;20054;-87
2022/09/06 08:21:44;;;;;;;15.60;2.50;;;;;;;30.36;54.28;100899.38;4986076;28;20085;-88
2022/09/06 08:24:10;;;;;;;11.85;2.17;;;;;;;30.50;54.36;100897.66;4969107;28;20067;-89
2022/09/06 08:26:41;;;;;;;11.02;2.08;;;;;;;31.83;50.62;100896.88;4990876;28;20041;-90
2022/09/06 08:29:08;;;;;;;11.98;2.42;;;;;;;31.97;48.28;100895.06;5003101;28;20029;-90
2022/09/06 08:32:18;;;;;;;10.80;2.22;;;;;;;32.18;48.00;100906.59;5013598;28;20117;-86
2022/09/06 10:33:32;;;;;;;29.90;17.02;;;;;;;35.71;39.46;100820.97;4930762;22;20068;-86
2022/09/06 10:36:27;;;;;;;28.05;16.80;;;;;;;35.32;40.28;100818.28;5039041;28;20067;-84
2022/09/06 10:39:50;;;;;;;34.03;21.73;;;;;;;34.81;41.63;100819.66;5037187;28;20078;-87
2022/09/06 10:42:52;;;;;;;31.70;16.30;;;;;;;34.93;41.27;100811.63;5037773;28;20041;-85
2022/09/06 10:46:02;;;;;;;28.85;17.80;;;;;;;34.98;40.93;100811.47;5037309;28;20038;-85
2022/09/06 10:49:07;;;;;;;29.48;16.13;;;;;;;35.33;41.13;100808.88;5038549;28;20073;-86
2022/09/06 10:55:11;;;;;;;31.05;21.50;;;;;;;35.83;40.56;100790.78;5038932;28;20072;-84
2022/09/06 10:58:16;;;;;;;30.38;21.25;;;;;;;35.60;40.36;100797.59;5023320;28;20034;-88
2022/09/06 11:20:24;;;;;;;36.72;21.95;;;;;;;36.65;38.48;100771.28;5735654;22;20845;-84
2022/09/06 11:23:34;;;;;;;28.65;18.85;;;;;;;37.27;36.66;100762.38;5035713;28;20056;-85
2022/09/06 11:26:33;;;;;;;26.67;16.48;;;;;;;37.12;37.38;100758.22;5033267;28;20050;-79
2022/09/06 11:29:09;;;;;;;26.05;15.35;;;;;;;37.11;36.20;100751.09;5028280;28;20046;-83
2022/09/06 11:32:04;;;;;;;27.95;17.95;;;;;;;36.95;36.70;100750.00;5025734;28;20378;-83
2022/09/06 11:34:40;;;;;;;29.27;18.65;;;;;;;35.68;38.96;100753.50;5033750;28;20034;-84
2022/09/06 11:37:41;;;;;;;24.58;15.80;;;;;;;36.26;38.00;100754.94;5016975;28;20049;-85
2022/09/06 11:40:32;;;;;;;22.70;14.80;;;;;;;36.80;37.36;100756.06;5031659;28;20037;-80
2022/09/06 11:43:13;;;;;;;22.23;14.73;;;;;;;36.84;36.89;100746.00;5037571;28;20029;-85
2022/09/06 11:46:02;;;;;;;24.50;15.90;;;;;;;36.41;37.76;100734.25;5036382;28;20098;-87
2022/09/06 11:49:04;;;;;;;25.55;16.13;;;;;;;35.49;39.50;100741.94;5036284;28;20058;-86
2022/09/06 12:01:49;;;;;;;;;;;;;;;32.26;48.33;100717.44;5036822;23;20034;-87
2022/09/06 12:04:24;;;;;;;19.10;10.80;;;;;;;32.24;47.48;100708.72;5038079;28;19905;-89
2022/09/06 12:12:38;;;;;;;;;;;;;;;31.97;49.70;100700.38;3922303;26;20038;-86
2022/09/06 12:15:27;;;;;;;25.35;13.07;;;;;;;31.92;50.30;100691.44;5022891;28;19921;-82
2022/09/06 12:18:00;;;;;;;26.05;13.13;;;;;;;31.78;49.59;100683.94;5033815;28;20049;-84
2022/09/06 12:20:46;;;;;;;29.75;14.48;;;;;;;31.42;50.01;100693.78;5034925;28;20120;-87
2022/09/06 12:23:33;;;;;;;21.13;12.50;;;;;;;30.73;52.05;100688.94;5031747;28;20061;-87
2022/09/06 12:26:15;;;;;;;15.70;10.93;;;;;;;30.74;51.65;100687.81;5033559;28;20050;-84
2022/09/06 12:29:14;;;;;;;15.90;7.40;;;;;;;31.19;51.76;100676.31;5062173;23;20060;-83
2022/09/06 12:32:23;;;;;;;22.70;9.30;;;;;;;31.37;50.75;100665.66;5019949;28;20053;-85
2022/09/06 12:34:59;;;;;;;;;;;;;;;31.18;50.26;100668.41;5036706;28;20038;-86
2022/09/06 12:37:32;;;;;;;15.50;10.38;;;;;;;31.04;50.71;100664.75;5016172;28;20033;-86
2022/09/06 12:40:28;;;;;;;19.05;7.68;;;;;;;31.20;51.43;100655.22;5003743;28;20023;-85
2022/09/06 12:43:01;;;;;;;21.98;9.88;;;;;;;31.35;51.56;100659.69;5011561;28;20069;-87
2022/09/06 12:49:23;;;;;;;18.08;11.93;;;;;;;30.76;52.42;100647.28;5017355;28;20073;-85
2022/09/06 12:52:17;;;;;;;15.65;9.65;;;;;;;30.89;52.60;100641.09;5013104;28;20062;-86
2022/09/06 12:54:57;;;;;;;16.08;8.77;;;;;;;30.60;52.83;100635.72;5017783;28;20021;-83
2022/09/06 12:57:28;;;;;;;10.88;6.63;;;;;;;30.75;52.42;100627.34;5034689;28;20065;-85
2022/09/06 13:00:01;;;;;;;18.02;7.60;;;;;;;30.64;53.04;100619.53;5035584;28;20038;-85
2022/09/06 13:03:41;;;;;;;16.00;7.78;;;;;;;30.69;53.58;100627.69;5035326;28;20073;-87
2022/09/06 13:06:15;;;;;;;19.95;7.90;;;;;;;30.21;53.83;100622.19;5030847;28;20022;-86
2022/09/06 13:08:58;;;;;;;9.38;5.63;;;;;;;30.55;53.74;100610.34;4984314;28;20033;-84
2022/09/06 13:12:06;;;;;;;9.85;4.85;;;;;;;30.59;53.76;100605.94;5006070;28;20058;-87
2022/09/06 13:15:10;;;;;;;16.20;6.00;;;;;;;30.50;53.98;100597.53;5011543;28;20090;-88
2022/09/06 13:17:44;;;;;;;11.02;5.22;;;;;;;30.48;54.20;100594.28;5016886;28;20026;-85
2022/09/06 13:24:23;;;;;;;16.45;5.72;;;;;;;30.59;52.18;100595.00;5017128;28;20046;-87
2022/09/06 13:29:43;;;;;;;11.98;4.63;;;;;;;30.52;52.43;100589.06;5034743;28;20038;-86
2022/09/06 14:11:33;;;;;;;8.35;2.67;;;;;;;30.55;49.85;100547.44;5640337;23;20076;-90
2022/09/06 14:22:57;;;;;;;9.27;2.80;;;;;;;30.34;50.18;100532.34;5158111;23;20030;-87
2022/09/06 14:26:23;;;;;;;9.23;2.28;;;;;;;30.40;48.29;100523.81;5040965;28;20069;-88
2022/09/06 14:54:09;;;;;;;5.22;2.60;;;;;;;30.62;46.10;100512.31;1860579;22;20096;-90
2022/09/06 14:56:37;;;;;;;12.68;2.60;;;;;;;30.37;45.94;100509.88;5018016;28;20026;-89
2022/09/06 14:59:05;;;;;;;9.93;2.20;;;;;;;30.45;45.91;100506.53;5016944;28;20118;-89
2022/09/06 15:01:35;;;;;;;9.82;2.70;;;;;;;30.35;46.31;100501.16;5020377;28;20094;-92
2022/09/06 15:04:03;;;;;;;7.72;2.78;;;;;;;30.66;46.54;100491.44;5021720;28;20102;-90
2022/09/06 15:06:31;;;;;;;11.20;2.42;;;;;;;30.59;46.57;100497.28;5019110;28;20500;-90
2022/09/06 15:09:04;;;;;;;11.45;2.33;;;;;;;30.59;46.19;100496.50;5029902;28;20045;-89
2022/09/06 15:11:39;;;;;;;10.00;2.47;;;;;;;30.48;47.34;100497.75;5020388;28;20041;-87
2022/09/06 15:14:16;;;;;;;5.28;2.40;;;;;;;30.41;47.05;100491.81;5004399;28;20072;-90
2022/09/06 15:16:51;;;;;;;12.68;2.00;;;;;;;30.37;47.93;100485.25;5001712;28;20038;-90
2022/09/06 15:19:23;;;;;;;8.93;2.13;;;;;;;30.19;48.92;100476.72;5018972;28;20137;-87
2022/09/06 15:21:49;;;;;;;6.07;2.08;;;;;;;30.28;47.89;100476.91;5014709;28;20030;-87
2022/09/06 15:24:18;;;;;;;8.52;2.10;;;;;;;30.38;47.58;100473.22;5018152;28;20125;-91
2022/09/06 15:26:44;;;;;;;6.40;2.08;;;;;;;30.36;47.54;100476.25;5027701;28;20489;-88
2022/09/06 15:29:13;;;;;;;5.95;2.10;;;;;;;30.40;47.89;100471.84;5017652;28;20046;-85
2022/09/06 15:31:41;;;;;;;7.55;2.20;;;;;;;30.75;46.50;100465.06;5022610;28;20034;-88
2022/09/06 15:34:45;;;;;;;6.35;2.20;;;;;;;30.59;47.11;100467.19;5018523;28;20037;-91
2022/09/06 15:37:21;;;;;;;7.68;2.05;;;;;;;30.76;46.56;100469.41;5013981;28;20028;-92
2022/09/06 15:39:53;;;;;;;9.43;2.40;;;;;;;30.76;46.29;100458.47;5015308;28;20073;-91
2022/09/06 15:42:46;;;;;;;14.85;2.65;;;;;;;30.60;46.47;100454.34;5017724;28;20027;-90
2022/09/06 15:45:28;;;;;;;10.65;2.63;;;;;;;30.61;46.34;100455.97;5014927;28;20018;-92
2022/09/06 15:47:55;;;;;;;7.22;2.53;;;;;;;30.91;45.31;100452.75;5006970;28;20037;-91
2022/09/06 15:50:27;;;;;;;11.52;2.78;;;;;;;30.57;46.62;100449.47;4991274;28;20075;-90
2022/09/06 15:56:05;;;;;;;7.60;2.33;;;;;;;30.63;47.02;100442.78;5026562;28;20033;-88
2022/09/06 15:58:34;;;;;;;12.65;2.30;;;;;;;30.54;47.61;100433.63;5036927;28;20049;-86
2022/09/06 16:01:09;;;;;;;8.02;2.58;;;;;;;30.46;48.25;100434.31;5023467;28;20046;-90
2022/09/06 16:03:40;;;;;;;8.07;2.10;;;;;;;30.58;47.39;100423.72;5020775;28;20034;-93
2022/09/06 16:06:08;;;;;;;11.07;2.60;;;;;;;30.50;47.27;100422.47;5018365;28;20425;-89
2022/09/06 16:12:31;;;;;;;6.47;2.22;;;;;;;30.51;47.70;100428.75;5038574;28;20067;-87
2022/09/06 16:15:17;;;;;;;9.30;2.60;;;;;;;30.49;47.68;100426.31;4986485;28;20066;-87
2022/09/06 16:38:23;;;;;;;8.43;2.65;;;;;;;30.10;51.07;100434.75;5363198;23;20080;-87
2022/09/06 16:45:22;;;;;;;10.38;2.90;;;;;;;29.71;52.59;100439.59;5038498;28;20060;-83
2022/09/06 16:48:22;;;;;;;11.57;2.70;;;;;;;29.63;52.80;100445.69;5037979;28;20046;-88
2022/09/06 17:02:42;;;;;;;10.48;2.83;;;;;;;29.43;54.72;100440.44;2961806;26;20053;-88
2022/09/06 18:15:41;;;;;;;12.10;2.83;;;;;;;28.08;63.01;100436.44;5038428;28;20053;-86
2022/09/06 18:32:27;;;;;;;8.52;2.33;;;;;;;27.74;64.54;100457.25;4116923;26;20090;-87
2022/09/06 18:35:11;;;;;;;8.43;2.42;;;;;;;27.63;64.92;100463.81;5020312;28;20057;-81
2022/09/06 18:38:29;;;;;;;10.32;3.72;;;;;;;27.55;65.63;100469.81;5011651;28;20064;-88
2022/09/06 18:45:28;;;;;;;9.18;2.70;;;;;;;27.37;66.95;100459.47;5034335;28;20072;-87
2022/09/06 18:48:16;;;;;;;7.78;2.22;;;;;;;27.25;67.48;100470.63;4966690;28;20038;-88
2022/09/06 18:56:22;;;;;;;13.32;2.40;;;;;;;26.99;65.64;100469.81;5045388;23;20050;-85
2022/09/06 19:04:47;;;;;;;14.85;2.83;;;;;;;27.10;65.20;100490.53;5057573;28;20056;-84
2022/09/06 19:15:55;;;;;;;8.07;2.58;;;;;;;26.90;63.28;100495.94;3094983;22;20038;-85
2022/09/06 19:18:47;;;;;;;6.05;1.80;;;;;;;26.72;63.78;100493.69;5029359;28;20070;-85
2022/09/06 19:21:31;;;;;;;11.55;2.30;;;;;;;26.76;64.36;100497.50;5036406;28;20081;-84
2022/09/06 19:24:23;;;;;;;8.30;2.00;;;;;;;26.79;64.11;100499.69;5022554;28;20025;-86
2022/09/06 19:27:15;;;;;;;14.55;2.28;;;;;;;26.76;62.67;100494.78;5022243;28;20041;-85
2022/09/06 19:30:05;;;;;;;8.60;1.80;;;;;;;26.85;62.68;100490.47;5020406;28;20042;-84
2022/09/06 19:33:01;;;;;;;10.63;1.92;;;;;;;26.90;62.25;100495.94;5035464;28;20050;-85
2022/09/06 19:35:45;;;;;;;6.03;1.95;;;;;;;27.08;61.61;100495.41;5038932;28;20048;-85
2022/09/06 19:47:13;;;;;;;4.75;1.95;;;;;;;27.04;57.75;100502.50;5517256;23;20033;-84
2022/09/06 20:12:28;;;;;;;7.32;1.58;;;;;;;26.26;60.79;100481.03;5157806;23;20501;-85
2022/09/06 20:15:06;;;;;;;10.90;1.50;;;;;;;26.06;61.67;100482.56;5030132;28;20061;-84
2022/09/06 20:18:20;;;;;;;6.70;1.95;;;;;;;26.08;62.13;100483.13;5038114;28;20554;-87
2022/09/06 20:21:12;;;;;;;7.93;1.73;;;;;;;26.07;61.80;100473.34;5016267;28;20073;-89
2022/09/06 21:26:17;;;;;;;5.93;1.50;;;;;;;25.45;70.42;100450.72;5289032;23;20096;-93
2022/09/06 21:28:51;;;;;;;5.70;1.80;;;;;;;25.42;71.27;100452.03;5014294;28;20069;-93
2022/09/06 21:31:30;;;;;;;10.55;1.60;;;;;;;25.44;71.41;100462.63;5021179;28;20038;-93
2022/09/06 21:34:02;;;;;;;13.07;2.75;;;;;;;25.25;73.49;100456.00;5002748;28;20050;-92
2022/09/06 21:39:11;;;;;;;4.55;1.40;;;;;;;25.22;76.05;100470.06;5082295;23;20089;-91
2022/09/06 21:42:18;;;;;;;11.13;1.60;;;;;;;25.12;77.81;100463.47;5011595;28;20085;-90
2022/09/06 21:44:44;;;;;;;5.60;1.80;;;;;;;25.22;76.19;100464.66;5019240;28;20057;-92
2022/09/06 21:47:09;;;;;;;7.35;1.83;;;;;;;25.08;74.69;100470.50;5000965;28;20038;-92
2022/09/06 21:49:41;;;;;;;8.05;1.63;;;;;;;25.37;73.37;100471.00;5020175;28;20517;-93
2022/09/06 21:52:18;;;;;;;6.88;1.92;;;;;;;25.38;73.79;100480.78;5007010;28;20041;-91
2022/09/06 21:54:44;;;;;;;5.40;1.60;;;;;;;25.38;76.62;100480.78;5008285;28;20053;-91
2022/09/06 21:57:21;;;;;;;5.05;2.00;;;;;;;25.20;75.78;100473.84;5021973;28;20034;-93
2022/09/06 21:59:52;;;;;;;8.20;1.70;;;;;;;25.25;75.32;100469.56;5009137;28;20040;-91
2022/09/06 22:02:19;;;;;;;4.65;1.60;;;;;;;24.96;76.92;100467.13;5010877;28;20128;-93
2022/09/06 22:04:50;;;;;;;8.88;2.20;;;;;;;24.92;78.03;100468.75;5009566;28;20072;-90
2022/09/06 22:07:25;;;;;;;6.77;1.73;;;;;;;24.90;78.63;100468.16;5009572;28;20045;-92
2022/09/06 22:09:51;;;;;;;6.18;2.00;;;;;;;24.76;80.02;100466.13;5010437;28;20578;-92
